Time;durP1;ratioP1;P1;durP2;ratioP2;P2;SDS_P1;SDS_P2;PMS_P1;PMS_P2;Temp;Humidity;BMP_temperature;BMP_pressure;BME280_temperature;BME280_humidity;BME280_pressure;Samples;Min_cycle;Max_cycle;Signal;HPM_P1;HPM_P2
2022/06/29 00:01:48;;;;;;;;;;;589.40;2432.00;;;;;;5073227;28;19904;-60
2022/06/29 00:04:13;;;;;;;;;;;589.50;2432.00;;;;;;5073309;28;19911;-60
2022/06/29 00:06:39;;;;;;;;;;;589.50;2432.00;;;;;;5073408;28;19966;-61
2022/06/29 00:09:05;;;;;;;;;;;589.50;2432.00;;;;;;5073133;28;20443;-62
2022/06/29 00:11:30;;;;;;;;;;;589.40;2432.00;;;;;;5073386;28;19947;-61
2022/06/29 00:13:56;;;;;;;;;;;589.40;2432.00;;;;;;5073306;28;19905;-61
2022/06/29 00:16:21;;;;;;;;;;;589.40;2432.00;;;;;;5073340;28;19993;-59
2022/06/29 00:18:47;;;;;;;;;;;589.30;2432.00;;;;;;5072834;28;20283;-60
2022/06/29 00:21:13;;;;;;;;;;;589.40;2432.00;;;;;;5073181;28;19917;-60
2022/06/29 00:23:39;;;;;;;;;;;589.30;2432.00;;;;;;5072283;28;19905;-60
2022/06/29 00:26:04;;;;;;;;;;;589.30;2432.00;;;;;;5073090;28;19904;-60
2022/06/29 00:28:30;;;;;;;;;;;589.30;2432.00;;;;;;5073091;28;19909;-61
2022/06/29 00:30:55;;;;;;;;;;;589.30;2432.00;;;;;;5072884;28;19993;-61
2022/06/29 00:33:21;;;;;;;;;;;589.20;2432.00;;;;;;5073003;28;19904;-59
2022/06/29 00:35:46;;;;;;;;;;;589.20;2432.00;;;;;;5072733;28;19904;-61
2022/06/29 00:38:12;;;;;;;;;;;589.30;2432.00;;;;;;5072815;28;19908;-60
2022/06/29 00:40:38;;;;;;;;;;;589.30;2432.00;;;;;;5072633;28;20439;-60
2022/06/29 00:43:03;;;;;;;;;;;589.20;2432.00;;;;;;5072789;28;19904;-60
2022/06/29 00:45:29;;;;;;;;;;;589.30;2432.00;;;;;;5072660;28;20355;-60
2022/06/29 00:47:55;;;;;;;;;;;589.20;2432.00;;;;;;5072499;28;19905;-61
2022/06/29 00:50:20;;;;;;;;;;;589.10;2432.00;;;;;;5072559;28;20275;-59
2022/06/29 00:52:46;;;;;;;;;;;589.10;2432.00;;;;;;5072269;28;19908;-61
2022/06/29 00:55:16;;;;;;;;;;;589.00;2432.00;;;;;;5072779;28;20137;-60
2022/06/29 00:57:42;;;;;;;;;;;589.00;2432.00;;;;;;5072461;28;20342;-60
2022/06/29 01:00:09;;;;;;;;;;;589.10;2432.00;;;;;;5072064;28;19920;-61
2022/06/29 01:02:34;;;;;;;;;;;589.00;2432.00;;;;;;5072376;28;19904;-61
2022/06/29 01:05:01;;;;;;;;;;;589.10;2432.00;;;;;;5072197;28;19987;-60
2022/06/29 01:07:28;;;;;;;;;;;589.10;2432.00;;;;;;5072116;28;19904;-61
2022/06/29 01:09:54;;;;;;;;;;;589.00;2432.00;;;;;;5072540;28;19905;-60
2022/06/29 01:12:20;;;;;;;;;;;589.00;2432.00;;;;;;5072205;28;20447;-60
2022/06/29 01:14:46;;;;;;;;;;;589.00;2432.00;;;;;;5072126;28;20389;-61
2022/06/29 01:17:12;;;;;;;;;;;588.90;2432.00;;;;;;5072017;28;19951;-60
2022/06/29 01:19:38;;;;;;;;;;;588.80;2432.00;;;;;;5071610;28;19912;-60
2022/06/29 01:22:07;;;;;;;;;;;589.00;2432.00;;;;;;5072152;28;20381;-60
2022/06/29 01:24:33;;;;;;;;;;;589.00;2432.00;;;;;;5071950;28;19911;-61
2022/06/29 01:26:58;;;;;;;;;;;589.00;2432.00;;;;;;5071732;28;19999;-60
2022/06/29 01:29:24;;;;;;;;;;;588.80;2432.00;;;;;;5071928;28;19999;-60
2022/06/29 01:31:53;;;;;;;;;;;588.80;2432.00;;;;;;5071676;28;19904;-60
2022/06/29 01:34:19;;;;;;;;;;;564.10;2432.00;;;;;;5071606;28;19904;-60
2022/06/29 01:36:44;;;;;;;;;;;563.90;2432.00;;;;;;5071776;28;19911;-61
2022/06/29 01:39:10;;;;;;;;;;;564.00;2432.00;;;;;;5071602;28;19908;-61
2022/06/29 01:41:35;;;;;;;;;;;564.00;2432.00;;;;;;5071442;28;19912;-61
2022/06/29 01:44:01;;;;;;;;;;;563.90;2432.00;;;;;;5071708;28;20270;-60
2022/06/29 01:46:27;;;;;;;;;;;563.80;2432.00;;;;;;5071507;28;19916;-60
2022/06/29 01:48:52;;;;;;;;;;;563.90;2432.00;;;;;;5071346;28;20258;-60
2022/06/29 01:51:18;;;;;;;;;;;563.90;2432.00;;;;;;5071221;28;19911;-59
2022/06/29 01:53:44;;;;;;;;;;;563.80;2432.00;;;;;;5071463;28;19904;-60
2022/06/29 01:56:09;;;;;;;;;;;563.80;2432.00;;;;;;5071053;28;20313;-59
2022/06/29 01:58:35;;;;;;;;;;;563.90;2432.00;;;;;;5070917;28;19999;-60
2022/06/29 02:01:00;;;;;;;;;;;563.80;2432.00;;;;;;5071211;28;19916;-60
2022/06/29 02:03:26;;;;;;;;;;;563.70;2432.00;;;;;;5071236;28;19959;-60
2022/06/29 02:05:51;;;;;;;;;;;563.70;2432.00;;;;;;5071020;28;19995;-60
2022/06/29 02:08:17;;;;;;;;;;;563.70;2432.00;;;;;;5070822;28;20286;-60
2022/06/29 02:10:43;;;;;;;;;;;563.60;2432.00;;;;;;5071039;28;19966;-60
2022/06/29 02:13:08;;;;;;;;;;;563.60;2432.00;;;;;;5070984;28;19904;-60
2022/06/29 02:15:34;;;;;;;;;;;563.60;2432.00;;;;;;5071018;28;19904;-60
2022/06/29 02:18:01;;;;;;;;;;;563.40;2432.00;;;;;;5071116;28;19904;-59
2022/06/29 02:20:26;;;;;;;;;;;563.60;2432.00;;;;;;5070615;28;20358;-60
2022/06/29 02:22:52;;;;;;;;;;;563.50;2432.00;;;;;;5070741;28;19905;-61
2022/06/29 02:25:17;;;;;;;;;;;563.50;2432.00;;;;;;5053022;28;19905;-60
2022/06/29 02:27:46;;;;;;;;;;;563.50;2432.00;;;;;;5070743;28;19914;-60
2022/06/29 02:30:13;;;;;;;;;;;563.50;2432.00;;;;;;5070898;28;19912;-60
2022/06/29 02:35:22;;;;;;;;;;;563.40;2432.00;;;;;;5070654;28;19911;-60
2022/06/29 02:37:48;;;;;;;;;;;563.50;2432.00;;;;;;5070571;28;20333;-60
2022/06/29 02:40:14;;;;;;;;;;;563.50;2432.00;;;;;;5070671;28;19912;-60
2022/06/29 02:42:39;;;;;;;;;;;563.50;2432.00;;;;;;5070566;28;19949;-59
2022/06/29 02:45:05;;;;;;;;;;;563.40;2432.00;;;;;;5070170;28;20271;-61
2022/06/29 02:47:31;;;;;;;;;;;563.50;2432.00;;;;;;5070611;28;20274;-59
2022/06/29 02:49:56;;;;;;;;;;;563.50;2432.00;;;;;;5070277;28;19904;-60
2022/06/29 02:52:22;;;;;;;;;;;563.50;2432.00;;;;;;5070459;28;19905;-60
2022/06/29 02:54:47;;;;;;;;;;;563.50;2432.00;;;;;;5070213;28;19912;-60
2022/06/29 02:57:13;;;;;;;;;;;563.50;2432.00;;;;;;5070301;28;20279;-60
2022/06/29 02:59:39;;;;;;;;;;;563.50;2432.00;;;;;;5070105;28;19924;-60
2022/06/29 03:02:04;;;;;;;;;;;563.50;2432.00;;;;;;5070499;28;20371;-60
2022/06/29 03:04:31;;;;;;;;;;;563.50;2432.00;;;;;;5070267;28;19905;-60
2022/06/29 03:06:56;;;;;;;;;;;563.60;2432.00;;;;;;5070317;28;19911;-60
2022/06/29 03:09:22;;;;;;;;;;;563.30;2432.00;;;;;;5070308;28;19904;-60
2022/06/29 03:11:47;;;;;;;;;;;563.40;2432.00;;;;;;5070173;28;19909;-60
2022/06/29 03:14:13;;;;;;;;;;;538.50;2406.40;;;;;;5070321;28;20314;-60
2022/06/29 03:16:38;;;;;;;;;;;563.30;2432.00;;;;;;5070157;28;19905;-60
2022/06/29 03:19:04;;;;;;;;;;;563.40;2432.00;;;;;;5070181;28;20002;-60
2022/06/29 03:21:29;;;;;;;;;;;563.50;2432.00;;;;;;5070221;28;19995;-60
2022/06/29 03:23:55;;;;;;;;;;;563.50;2432.00;;;;;;5070319;28;19908;-60
2022/06/29 03:26:21;;;;;;;;;;;563.60;2432.00;;;;;;5070266;28;20468;-61
2022/06/29 03:28:48;;;;;;;;;;;563.60;2432.00;;;;;;5069825;28;19909;-60
2022/06/29 03:31:13;;;;;;;;;;;563.70;2432.00;;;;;;5070381;28;19909;-60
2022/06/29 03:33:39;;;;;;;;;;;563.70;2432.00;;;;;;5069996;28;19904;-60
2022/06/29 03:36:04;;;;;;;;;;;563.80;2432.00;;;;;;5069746;28;19904;-60
2022/06/29 03:38:30;;;;;;;;;;;563.90;2432.00;;;;;;5070058;28;19905;-57
2022/06/29 03:40:56;;;;;;;;;;;564.10;2432.00;;;;;;5070090;28;19916;-57
2022/06/29 03:43:21;;;;;;;;;;;588.80;2432.00;;;;;;5069942;28;19905;-57
2022/06/29 03:45:47;;;;;;;;;;;588.90;2432.00;;;;;;5069812;28;19959;-58
2022/06/29 03:48:15;;;;;;;;;;;588.90;2432.00;;;;;;5069971;28;19916;-58
2022/06/29 03:50:40;;;;;;;;;;;589.10;2432.00;;;;;;5069757;28;20342;-57
2022/06/29 03:53:06;;;;;;;;;;;589.20;2432.00;;;;;;5069627;28;19904;-58
2022/06/29 03:55:32;;;;;;;;;;;589.30;2432.00;;;;;;5069855;28;20286;-57
2022/06/29 03:57:57;;;;;;;;;;;589.40;2432.00;;;;;;5071418;28;19912;-57
2022/06/29 04:00:23;;;;;;;;;;;589.60;2432.00;;;;;;5073284;28;20022;-59
2022/06/29 04:02:48;;;;;;;;;;;589.50;2432.00;;;;;;5073318;28;19904;-54
2022/06/29 04:05:14;;;;;;;;;;;589.70;2432.00;;;;;;5073204;28;19939;-54
2022/06/29 04:07:39;;;;;;;;;;;614.60;2432.00;;;;;;5073289;28;19950;-54
2022/06/29 04:10:05;;;;;;;;;;;614.80;2432.00;;;;;;5073404;28;19905;-55
2022/06/29 04:12:36;;;;;;;;;;;615.00;2432.00;;;;;;5073255;28;19905;-55
2022/06/29 04:15:02;;;;;;;;;;;614.80;2432.00;;;;;;5073516;28;20389;-55
2022/06/29 04:17:28;;;;;;;;;;;615.10;2432.00;;;;;;5073383;28;19909;-54
2022/06/29 04:19:53;;;;;;;;;;;615.00;2432.00;;;;;;5072972;28;19919;-55
2022/06/29 04:22:19;;;;;;;;;;;615.20;2432.00;;;;;;5072931;28;20266;-55
2022/06/29 04:24:45;;;;;;;;;;;640.10;2432.00;;;;;;5072943;28;19912;-55
2022/06/29 04:27:11;;;;;;;;;;;615.20;2432.00;;;;;;5073131;28;20374;-54
2022/06/29 04:29:36;;;;;;;;;;;640.10;2432.00;;;;;;5072991;28;20263;-54
2022/06/29 04:32:02;;;;;;;;;;;615.30;2432.00;;;;;;5073229;28;20033;-54
2022/06/29 04:34:28;;;;;;;;;;;640.50;2432.00;;;;;;5072977;28;20010;-59
2022/06/29 04:36:53;;;;;;;;;;;716.90;2355.20;;;;;;5072782;28;19943;-62
2022/06/29 04:39:19;;;;;;;;;;;742.60;2124.80;;;;;;5072801;28;20053;-54
2022/06/29 04:41:45;;;;;;;;;;;794.00;1868.80;;;;;;5072673;28;19950;-57
2022/06/29 04:44:11;;;;;;;;;;;820.10;1689.60;;;;;;5072888;28;20261;-54
2022/06/29 04:46:36;;;;;;;;;;;870.50;1587.20;;;;;;5072626;28;19904;-55
2022/06/29 04:49:02;;;;;;;;;;;845.70;1587.20;;;;;;5072733;28;19904;-54
2022/06/29 04:51:29;;;;;;;;;;;896.00;1484.80;;;;;;5072419;28;20347;-57
2022/06/29 04:53:56;;;;;;;;;;;870.50;1536.00;;;;;;5072414;28;19904;-55
2022/06/29 04:56:26;;;;;;;;;;;896.20;1459.20;;;;;;5072693;28;19915;-54
2022/06/29 04:58:53;;;;;;;;;;;871.30;1459.20;;;;;;5072161;28;19958;-54
2022/06/29 05:01:23;;;;;;;;;;;921.80;1459.20;;;;;;5072216;28;19923;-66
2022/06/29 05:03:49;;;;;;;;;;;870.90;1484.80;;;;;;5072191;28;19910;-54
2022/06/29 05:06:14;;;;;;;;;;;947.20;1382.40;;;;;;5072273;28;19904;-54
2022/06/29 05:08:40;;;;;;;;;;;948.10;1331.20;;;;;;5072013;28;19904;-54
2022/06/29 05:11:05;;;;;;;;;;;948.10;1305.60;;;;;;5072215;28;19904;-55
2022/06/29 05:13:31;;;;;;;;;;;973.10;1280.00;;;;;;5071870;28;19943;-55
2022/06/29 05:15:57;;;;;;;;;;;973.20;1280.00;;;;;;5072296;28;19908;-55
2022/06/29 05:18:24;;;;;;;;;;;998.60;1280.00;;;;;;5072285;28;19965;-54
2022/06/29 05:20:49;;;;;;;;;;;1024.00;1228.80;;;;;;5071906;28;19919;-55
2022/06/29 05:23:15;;;;;;;;;;;998.50;1228.80;;;;;;5071861;28;20270;-54
2022/06/29 05:25:41;;;;;;;;;;;973.70;1228.80;;;;;;5072329;28;19911;-54
2022/06/29 05:28:07;;;;;;;;;;;998.60;1228.80;;;;;;5071690;28;19915;-55
2022/06/29 05:30:33;;;;;;;;;;;999.00;1203.20;;;;;;5072048;28;19916;-54
2022/06/29 05:32:58;;;;;;;;;;;1050.00;1152.00;;;;;;5071827;28;19904;-55
2022/06/29 05:35:24;;;;;;;;;;;1050.30;1126.40;;;;;;5071734;28;19969;-54
2022/06/29 05:37:50;;;;;;;;;;;1024.70;1152.00;;;;;;5071647;28;19905;-54
2022/06/29 05:40:16;;;;;;;;;;;1024.10;1177.60;;;;;;5071525;28;19935;-55
2022/06/29 05:42:41;;;;;;;;;;;998.50;1228.80;;;;;;5071755;28;20006;-54
2022/06/29 05:45:07;;;;;;;;;;;1024.10;1177.60;;;;;;5071741;28;19908;-54
2022/06/29 05:47:32;;;;;;;;;;;1050.30;1126.40;;;;;;5071652;28;19993;-55
2022/06/29 05:50:00;;;;;;;;;;;1050.00;1152.00;;;;;;5071338;28;19927;-64
2022/06/29 05:52:26;;;;;;;;;;;1024.60;1152.00;;;;;;5071319;28;20010;-55
2022/06/29 05:54:52;;;;;;;;;;;1075.40;1100.80;;;;;;5071392;28;20002;-63
2022/06/29 05:57:19;;;;;;;;;;;1049.80;1152.00;;;;;;5070924;28;20498;-55
2022/06/29 05:59:46;;;;;;;;;;;1049.60;1152.00;;;;;;5070981;28;19920;-55
2022/06/29 06:02:12;;;;;;;;;;;1024.90;1126.40;;;;;;5071371;28;19930;-54
2022/06/29 06:04:38;;;;;;;;;;;1050.30;1126.40;;;;;;5071013;28;20333;-55
2022/06/29 06:07:04;;;;;;;;;;;1049.70;1152.00;;;;;;5071014;28;19905;-56
2022/06/29 06:09:29;;;;;;;;;;;1049.90;1152.00;;;;;;5070849;28;19908;-54
2022/06/29 06:11:55;;;;;;;;;;;1024.60;1152.00;;;;;;5070989;28;19995;-55
2022/06/29 06:14:21;;;;;;;;;;;1024.60;1152.00;;;;;;5070807;28;19981;-65
2022/06/29 06:16:46;;;;;;;;;;;1049.80;1152.00;;;;;;5070882;28;19912;-55
2022/06/29 06:19:12;;;;;;;;;;;1076.10;1075.20;;;;;;5071063;28;19908;-64
2022/06/29 06:21:37;;;;;;;;;;;1076.10;1075.20;;;;;;5070166;28;19915;-55
2022/06/29 06:24:03;;;;;;;;;;;1075.60;1100.80;;;;;;5070924;28;19904;-54
2022/06/29 06:26:29;;;;;;;;;;;1050.30;1126.40;;;;;;5071065;28;19911;-54
2022/06/29 06:28:55;;;;;;;;;;;1101.40;1049.60;;;;;;5070682;28;19976;-55
2022/06/29 06:31:21;;;;;;;;;;;1101.40;1075.20;;;;;;5070840;28;19912;-54
2022/06/29 06:33:46;;;;;;;;;;;1076.10;1075.20;;;;;;5070782;28;19904;-55
2022/06/29 06:36:12;;;;;;;;;;;1075.70;1075.20;;;;;;5070919;28;20015;-54
2022/06/29 06:38:37;;;;;;;;;;;1075.20;1100.80;;;;;;5070412;28;20274;-60
2022/06/29 06:41:21;;;;;;;;;;;1100.90;1100.80;;;;;;5070699;28;19912;-54
2022/06/29 06:43:47;;;;;;;;;;;1101.10;1075.20;;;;;;5070587;28;19950;-55
2022/06/29 06:46:13;;;;;;;;;;;1075.90;1075.20;;;;;;5070581;28;20389;-66
2022/06/29 06:48:38;;;;;;;;;;;1075.70;1075.20;;;;;;5070513;28;19931;-55
2022/06/29 06:51:04;;;;;;;;;;;1024.50;1177.60;;;;;;5070560;28;20365;-55
2022/06/29 06:53:29;;;;;;;;;;;1076.10;1075.20;;;;;;5070353;28;20266;-54
2022/06/29 06:55:55;;;;;;;;;;;1101.00;1100.80;;;;;;5070342;28;19904;-56
2022/06/29 06:58:20;;;;;;;;;;;1126.70;1075.20;;;;;;5070106;28;19918;-54
2022/06/29 07:00:46;;;;;;;;;;;1101.10;1100.80;;;;;;5070259;28;19926;-55
2022/06/29 07:03:11;;;;;;;;;;;1101.10;1100.80;;;;;;5070635;28;20239;-54
2022/06/29 07:05:37;;;;;;;;;;;1101.20;1075.20;;;;;;5070086;28;19915;-55
2022/06/29 07:08:03;;;;;;;;;;;1101.70;1049.60;;;;;;5070290;28;19905;-55
2022/06/29 07:10:29;;;;;;;;;;;1127.30;1024.00;;;;;;5070263;28;20342;-55
2022/06/29 07:12:54;;;;;;;;;;;1101.10;1100.80;;;;;;5070580;28;19940;-55
2022/06/29 07:15:20;;;;;;;;;;;1101.10;1100.80;;;;;;5070077;28;19908;-54
2022/06/29 07:17:45;;;;;;;;;;;1126.90;1049.60;;;;;;5070269;28;20304;-56
2022/06/29 07:20:11;;;;;;;;;;;1126.40;1075.20;;;;;;5070246;28;20014;-55
2022/06/29 07:22:36;;;;;;;;;;;1126.60;1075.20;;;;;;5070182;28;19905;-55
2022/06/29 07:25:02;;;;;;;;;;;1101.00;1100.80;;;;;;5070226;28;20381;-55
2022/06/29 07:27:28;;;;;;;;;;;1101.70;1075.20;;;;;;5070008;28;19904;-55
2022/06/29 07:29:53;;;;;;;;;;;1126.70;1075.20;;;;;;5070528;28;19958;-55
2022/06/29 07:32:19;;;;;;;;;;;1127.30;1049.60;;;;;;5072382;28;20362;-55
2022/06/29 07:34:45;;;;;;;;;;;1127.30;1049.60;;;;;;5074116;28;19912;-55
2022/06/29 07:37:11;;;;;;;;;;;1101.70;1075.20;;;;;;5073979;28;19904;-55
2022/06/29 07:39:36;;;;;;;;;;;1126.60;1100.80;;;;;;5073698;28;19913;-56
2022/06/29 07:42:02;;;;;;;;;;;1152.50;1024.00;;;;;;5073990;28;19912;-55
2022/06/29 07:44:28;;;;;;;;;;;1152.40;1024.00;;;;;;5073934;28;19908;-56
2022/06/29 07:46:53;;;;;;;;;;;1178.00;998.40;;;;;;5073790;28;19908;-55
2022/06/29 07:49:19;;;;;;;;;;;1178.30;998.40;;;;;;5073570;28;19905;-54
2022/06/29 07:51:45;;;;;;;;;;;1178.20;998.40;;;;;;5073667;28;20007;-55
2022/06/29 07:54:10;;;;;;;;;;;1177.60;1024.00;;;;;;5073799;28;20317;-55
2022/06/29 07:56:36;;;;;;;;;;;1152.40;1049.60;;;;;;5073337;28;19999;-55
2022/06/29 07:59:02;;;;;;;;;;;1178.10;1024.00;;;;;;5073300;28;19924;-55
2022/06/29 08:01:28;;;;;;;;;;;1203.20;1024.00;;;;;;5073614;28;19928;-61
2022/06/29 08:03:54;;;;;;;;;;;1177.80;1024.00;;;;;;5073599;28;19904;-55
2022/06/29 08:06:20;;;;;;;;;;;1126.90;1049.60;;;;;;5073331;28;19904;-63
2022/06/29 08:08:45;;;;;;;;;;;1126.90;1075.20;;;;;;5073201;28;20381;-55
2022/06/29 08:11:11;;;;;;;;;;;1126.80;1049.60;;;;;;5073271;28;19904;-55
2022/06/29 08:13:38;;;;;;;;;;;1152.20;1024.00;;;;;;5073335;28;19904;-55
2022/06/29 08:16:04;;;;;;;;;;;1101.50;1075.20;;;;;;5073142;28;19905;-64
2022/06/29 08:18:30;;;;;;;;;;;1050.00;1152.00;;;;;;5073302;28;19911;-54
2022/06/29 08:20:55;;;;;;;;;;;998.80;1228.80;;;;;;5073214;28;19913;-56
2022/06/29 08:23:21;;;;;;;;;;;973.40;1228.80;;;;;;5073303;28;19908;-55
2022/06/29 08:25:46;;;;;;;;;;;973.00;1254.40;;;;;;5073034;28;20373;-55
2022/06/29 08:28:12;;;;;;;;;;;947.40;1228.80;;;;;;5073082;28;19912;-64
2022/06/29 08:30:37;;;;;;;;;;;947.40;1280.00;;;;;;5073361;28;19919;-55
2022/06/29 08:33:03;;;;;;;;;;;947.50;1254.40;;;;;;5072994;28;19904;-55
2022/06/29 08:35:28;;;;;;;;;;;947.40;1254.40;;;;;;5072998;28;19904;-55
2022/06/29 08:37:54;;;;;;;;;;;922.30;1280.00;;;;;;5072993;28;20412;-58
2022/06/29 08:40:20;;;;;;;;;;;921.60;1305.60;;;;;;5072495;28;19971;-55
2022/06/29 08:42:46;;;;;;;;;;;896.80;1305.60;;;;;;5072236;28;19930;-55
2022/06/29 08:45:12;;;;;;;;;;;896.80;1356.80;;;;;;5072893;28;19905;-55
2022/06/29 08:47:37;;;;;;;;;;;896.00;1356.80;;;;;;5072670;28;19961;-55
2022/06/29 08:50:04;;;;;;;;;;;896.00;1356.80;;;;;;5072814;28;20010;-57
2022/06/29 08:52:30;;;;;;;;;;;871.20;1382.40;;;;;;5072412;28;19904;-64
2022/06/29 08:54:56;;;;;;;;;;;871.30;1356.80;;;;;;5072550;28;19911;-55
2022/06/29 08:57:23;;;;;;;;;;;896.50;1356.80;;;;;;5072325;28;19955;-55
2022/06/29 08:59:51;;;;;;;;;;;871.20;1331.20;;;;;;5072053;28;19990;-55
2022/06/29 09:02:17;;;;;;;;;;;896.20;1356.80;;;;;;5072297;28;19905;-55
2022/06/29 09:04:42;;;;;;;;;;;896.20;1331.20;;;;;;5072296;28;19973;-54
2022/06/29 09:07:09;;;;;;;;;;;871.20;1356.80;;;;;;5072144;28;19905;-55
2022/06/29 09:09:53;;;;;;;;;;;896.30;1356.80;;;;;;5072184;28;19904;-55
2022/06/29 09:12:18;;;;;;;;;;;896.40;1331.20;;;;;;5071977;28;19908;-55
2022/06/29 09:14:44;;;;;;;;;;;896.20;1331.20;;;;;;5072277;28;19904;-55
2022/06/29 09:17:10;;;;;;;;;;;896.70;1331.20;;;;;;5071811;28;19904;-54
2022/06/29 09:19:35;;;;;;;;;;;896.60;1331.20;;;;;;5072134;28;19912;-55
2022/06/29 09:22:01;;;;;;;;;;;896.10;1356.80;;;;;;5072155;28;19908;-55
2022/06/29 09:24:28;;;;;;;;;;;896.20;1356.80;;;;;;5072035;28;19931;-55
2022/06/29 09:26:55;;;;;;;;;;;896.20;1331.20;;;;;;5071933;28;19973;-55
2022/06/29 09:29:23;;;;;;;;;;;896.30;1331.20;;;;;;5072091;28;19916;-55
2022/06/29 09:32:07;;;;;;;;;;;896.20;1305.60;;;;;;5071629;28;19908;-55
2022/06/29 09:34:32;;;;;;;;;;;896.30;1305.60;;;;;;5072059;28;20271;-65
2022/06/29 09:37:00;;;;;;;;;;;896.20;1331.20;;;;;;5071664;28;19908;-55
2022/06/29 09:39:35;;;;;;;;;;;896.20;1331.20;;;;;;5071501;28;20358;-55
2022/06/29 09:42:01;;;;;;;;;;;896.00;1305.60;;;;;;5071592;28;19991;-55
2022/06/29 09:44:26;;;;;;;;;;;896.20;1331.20;;;;;;5071590;28;19905;-57
2022/06/29 09:46:54;;;;;;;;;;;896.40;1305.60;;;;;;5071704;28;19959;-55
2022/06/29 09:49:23;;;;;;;;;;;896.60;1305.60;;;;;;5053727;28;20270;-55
2022/06/29 09:51:49;;;;;;;;;;;871.30;1331.20;;;;;;5071114;28;19978;-55
2022/06/29 09:54:15;;;;;;;;;;;871.20;1331.20;;;;;;5053131;28;19904;-54
2022/06/29 09:56:50;;;;;;;;;;;871.10;1356.80;;;;;;5070980;28;19950;-55
2022/06/29 09:59:21;;;;;;;;;;;896.10;1356.80;;;;;;5070748;28;19916;-55
2022/06/29 10:04:31;;;;;;;;;;;871.00;1331.20;;;;;;5071452;28;19912;-55
2022/06/29 10:06:57;;;;;;;;;;;871.00;1331.20;;;;;;5071177;28;19908;-55
2022/06/29 10:09:22;;;;;;;;;;;870.90;1356.80;;;;;;5071066;28;20267;-55
2022/06/29 10:14:35;;;;;;;;;;;871.10;1331.20;;;;;;5071027;28;19970;-54
2022/06/29 10:17:19;;;;;;;;;;;896.00;1305.60;;;;;;5070839;28;19911;-55
2022/06/29 10:19:51;;;;;;;;;;;871.10;1356.80;;;;;;5071084;28;19916;-55
2022/06/29 10:22:16;;;;;;;;;;;896.00;1331.20;;;;;;5070668;28;20359;-55
2022/06/29 10:25:02;;;;;;;;;;;871.30;1356.80;;;;;;5070863;28;19910;-63
2022/06/29 10:27:28;;;;;;;;;;;871.30;1331.20;;;;;;5070694;28;19919;-55
2022/06/29 10:30:13;;;;;;;;;;;871.00;1356.80;;;;;;5070762;28;19909;-54
2022/06/29 10:32:39;;;;;;;;;;;871.10;1356.80;;;;;;5070495;28;20274;-54
2022/06/29 10:35:07;;;;;;;;;;;871.00;1331.20;;;;;;5070922;28;19910;-59
2022/06/29 10:37:46;;;;;;;;;;;871.00;1356.80;;;;;;5070769;28;20265;-55
2022/06/29 10:40:16;;;;;;;;;;;870.90;1356.80;;;;;;5070633;28;19939;-54
2022/06/29 10:45:32;;;;;;;;;;;870.80;1331.20;;;;;;5070831;28;19958;-55
2022/06/29 10:48:05;;;;;;;;;;;870.80;1331.20;;;;;;5070529;28;19908;-55
2022/06/29 10:50:31;;;;;;;;;;;870.70;1331.20;;;;;;5070778;28;19904;-54
2022/06/29 10:52:57;;;;;;;;;;;870.60;1331.20;;;;;;5070312;28;20313;-55
2022/06/29 10:55:24;;;;;;;;;;;870.50;1305.60;;;;;;5070709;28;20251;-64
2022/06/29 10:57:49;;;;;;;;;;;870.50;1331.20;;;;;;5070311;28;19915;-54
2022/06/29 11:00:16;;;;;;;;;;;870.50;1331.20;;;;;;5070221;28;20290;-54
2022/06/29 11:02:42;;;;;;;;;;;870.50;1331.20;;;;;;5070359;28;19904;-54
2022/06/29 11:05:09;;;;;;;;;;;870.50;1331.20;;;;;;5070263;28;19908;-54
2022/06/29 11:13:03;;;;;;;;;;;870.60;1356.80;;;;;;5074711;28;19911;-55
2022/06/29 11:18:12;;;;;;;;;;;870.50;1356.80;;;;;;5074018;28;20275;-55
2022/06/29 11:20:41;;;;;;;;;;;870.60;1356.80;;;;;;5074041;28;19917;-54
2022/06/29 11:23:14;;;;;;;;;;;870.60;1331.20;;;;;;5074188;28;19905;-55
2022/06/29 11:25:40;;;;;;;;;;;870.50;1331.20;;;;;;5074265;28;19904;-55
2022/06/29 11:28:06;;;;;;;;;;;870.50;1331.20;;;;;;5074085;28;19912;-55
2022/06/29 11:30:32;;;;;;;;;;;870.50;1331.20;;;;;;5074212;28;19915;-54
2022/06/29 11:32:58;;;;;;;;;;;870.70;1356.80;;;;;;5074026;28;20300;-54
2022/06/29 11:35:25;;;;;;;;;;;870.70;1382.40;;;;;;5074259;28;19904;-54
2022/06/29 11:37:57;;;;;;;;;;;870.70;1331.20;;;;;;5074277;28;20324;-54
2022/06/29 11:40:34;;;;;;;;;;;870.60;1331.20;;;;;;5074147;28;19967;-54
2022/06/29 11:43:06;;;;;;;;;;;870.50;1331.20;;;;;;5073843;28;19904;-55
2022/06/29 11:45:35;;;;;;;;;;;870.50;1356.80;;;;;;5073999;28;19910;-54
2022/06/29 11:48:09;;;;;;;;;;;870.50;1356.80;;;;;;5073938;28;19940;-54
2022/06/29 11:50:40;;;;;;;;;;;870.50;1356.80;;;;;;5073697;28;19904;-54
2022/06/29 11:53:06;;;;;;;;;;;870.70;1331.20;;;;;;5073557;28;19955;-55
2022/06/29 11:55:39;;;;;;;;;;;870.60;1331.20;;;;;;5073710;28;19906;-60
2022/06/29 11:58:05;;;;;;;;;;;870.60;1331.20;;;;;;5073494;28;19923;-62
2022/06/29 12:00:31;;;;;;;;;;;870.60;1331.20;;;;;;5073422;28;19920;-57
2022/06/29 12:02:57;;;;;;;;;;;870.70;1305.60;;;;;;5073467;28;19905;-55
2022/06/29 12:05:23;;;;;;;;;;;870.60;1305.60;;;;;;5073524;28;20347;-56
2022/06/29 12:07:48;;;;;;;;;;;870.60;1305.60;;;;;;5073194;28;19912;-55
2022/06/29 12:10:15;;;;;;;;;;;870.70;1331.20;;;;;;5073468;28;20313;-64
2022/06/29 12:12:41;;;;;;;;;;;870.60;1305.60;;;;;;5073329;28;19995;-63
2022/06/29 12:15:08;;;;;;;;;;;870.50;1331.20;;;;;;5073109;28;19944;-55
2022/06/29 12:17:35;;;;;;;;;;;870.50;1331.20;;;;;;5072627;28;19973;-54
2022/06/29 12:20:02;;;;;;;;;;;870.70;1331.20;;;;;;5072553;28;19908;-54
2022/06/29 12:22:28;;;;;;;;;;;870.60;1305.60;;;;;;5073087;28;19912;-54
2022/06/29 12:24:53;;;;;;;;;;;870.50;1331.20;;;;;;5073380;28;19919;-64
2022/06/29 12:27:19;;;;;;;;;;;870.60;1331.20;;;;;;5072860;28;19915;-54
2022/06/29 12:29:44;;;;;;;;;;;870.70;1331.20;;;;;;5073377;28;19936;-54
2022/06/29 12:32:10;;;;;;;;;;;870.70;1331.20;;;;;;5073127;28;19930;-54
2022/06/29 12:34:35;;;;;;;;;;;870.70;1331.20;;;;;;5073042;28;19912;-54
2022/06/29 12:37:03;;;;;;;;;;;870.70;1356.80;;;;;;5073143;28;19904;-54
2022/06/29 12:39:29;;;;;;;;;;;870.80;1356.80;;;;;;5072842;28;19916;-55
2022/06/29 12:41:54;;;;;;;;;;;870.80;1331.20;;;;;;5073005;28;19905;-54
2022/06/29 12:44:20;;;;;;;;;;;870.60;1331.20;;;;;;5072537;28;19912;-54
2022/06/29 12:46:46;;;;;;;;;;;870.70;1356.80;;;;;;5072902;28;19957;-56
2022/06/29 12:49:11;;;;;;;;;;;870.70;1331.20;;;;;;5072832;28;19904;-54
2022/06/29 12:51:37;;;;;;;;;;;870.70;1331.20;;;;;;5072615;28;19958;-54
2022/06/29 12:54:03;;;;;;;;;;;870.70;1356.80;;;;;;5072742;28;20362;-55
2022/06/29 12:56:28;;;;;;;;;;;870.70;1356.80;;;;;;5072455;28;20244;-55
2022/06/29 12:58:54;;;;;;;;;;;870.60;1356.80;;;;;;5072261;28;19912;-54
2022/06/29 13:01:19;;;;;;;;;;;870.60;1408.00;;;;;;5072441;28;20278;-55
2022/06/29 13:03:45;;;;;;;;;;;870.70;1382.40;;;;;;5072652;28;20392;-54
2022/06/29 13:06:11;;;;;;;;;;;870.60;1356.80;;;;;;5072275;28;19943;-55
2022/06/29 13:08:36;;;;;;;;;;;870.80;1382.40;;;;;;5072256;28;19911;-64
2022/06/29 13:11:02;;;;;;;;;;;870.60;1356.80;;;;;;5072407;28;20314;-55
2022/06/29 13:13:29;;;;;;;;;;;870.70;1331.20;;;;;;5072108;28;19916;-55
2022/06/29 13:15:56;;;;;;;;;;;870.60;1356.80;;;;;;5072127;28;19905;-54
2022/06/29 13:18:21;;;;;;;;;;;870.50;1356.80;;;;;;5072243;28;19908;-54
2022/06/29 13:20:47;;;;;;;;;;;870.40;1356.80;;;;;;5071889;28;19919;-54
2022/06/29 13:23:14;;;;;;;;;;;870.60;1356.80;;;;;;5072225;28;20270;-54
2022/06/29 13:25:40;;;;;;;;;;;870.40;1356.80;;;;;;5072062;28;19911;-54
2022/06/29 13:28:05;;;;;;;;;;;845.70;1356.80;;;;;;5071951;28;19940;-64
2022/06/29 13:30:31;;;;;;;;;;;870.40;1331.20;;;;;;5071704;28;19908;-54
2022/06/29 13:32:56;;;;;;;;;;;870.40;1305.60;;;;;;5071834;28;19904;-54
2022/06/29 13:35:22;;;;;;;;;;;870.40;1331.20;;;;;;5072005;28;19904;-55
2022/06/29 13:37:47;;;;;;;;;;;845.70;1305.60;;;;;;5071621;28;20419;-55
2022/06/29 13:40:13;;;;;;;;;;;845.70;1305.60;;;;;;5071716;28;19912;-57
2022/06/29 13:42:39;;;;;;;;;;;845.70;1305.60;;;;;;5071605;28;19904;-54
2022/06/29 13:45:05;;;;;;;;;;;870.40;1331.20;;;;;;5071634;28;19904;-61
2022/06/29 13:47:31;;;;;;;;;;;845.70;1305.60;;;;;;5071699;28;19922;-55
2022/06/29 13:49:56;;;;;;;;;;;870.40;1305.60;;;;;;5071701;28;19994;-55
2022/06/29 13:52:22;;;;;;;;;;;845.70;1331.20;;;;;;5071497;28;19904;-54
2022/06/29 13:54:47;;;;;;;;;;;845.70;1331.20;;;;;;5071349;28;19939;-55